KRCA/RCA METAR and TAF weather

Enter ICAO airport designator
Station Type Date Time Source
KRCA METAR 2022/06/28 14:56 UTC NOAA

KRCA 281456Z AUTO 00000KT 10SM CLR 23/09 A3017 RMK AO2 SLP196 T02300094 55000 $


Station Type Date Time Source
KRCA Decoded METAR 2022/06/28 14:56 UTC NOAA

Ellsworth Air Force Base, SD, United States (KRCA) 44-09N 103-06W
Jun 28, 2022 - 10:56 AM EDT / 2022.06.28 1456 UTC
Wind: Calm:0
Visibility: 10 mile(s):0
Sky conditions: clear
Temperature: 73.4 F (23.0 C)
Dew Point: 48.9 F (9.4 C)
Relative Humidity: 41%
Pressure (altimeter): 30.17 in. Hg (1021 hPa)
Pressure tendency: 0.00 inches (0.0 hPa) lower than three hours ago
ob: KRCA 281456Z AUTO 00000KT 10SM CLR 23/09 A3017 RMK AO2 SLP196 T02300094 55000
cycle: 15

Station Type Date Time Source
KRCA TAF 2022/06/28 11:09 UTC NOAA

TAF KRCA 281100Z 2811/2917 VRB06KT 9999 SKC QNH3006INS
BECMG 2902/2903 31015G25KT 9999 SCT120 QNH3000INS
BECMG 2909/2910 33012KT 9000 -SHRA SCT050 QNH2989INS TX31/2819Z TN13/2811Z

Example: see airport list